Time;durP1;ratioP1;P1;durP2;ratioP2;P2;SDS_P1;SDS_P2;PMS_P1;PMS_P2;Temp;Humidity;BMP_temperature;BMP_pressure;BME280_temperature;BME280_humidity;BME280_pressure;Samples;Min_cycle;Max_cycle;Signal;HPM_P1;HPM_P2
2022/12/15 00:39:29;;;;;;;180.63;82.82;;;;;;;-3.92;100.00;97696.72;4275014;82;21033;-90
2022/12/15 01:23:19;;;;;;;183.10;84.63;;;;;;;-3.73;100.00;97747.45;4303973;81;21976;-89
2022/12/15 01:29:21;;;;;;;200.23;89.60;;;;;;;-3.79;100.00;97760.74;4315789;81;21081;-88
2022/12/15 01:35:22;;;;;;;205.03;89.70;;;;;;;-3.78;100.00;97758.86;4305359;81;20998;-89
2022/12/15 01:41:24;;;;;;;211.60;91.97;;;;;;;-3.75;100.00;97760.37;4307030;81;21329;-88
2022/12/15 01:47:27;;;;;;;190.53;85.03;;;;;;;-3.75;100.00;97771.07;4309107;80;21538;-88
2022/12/15 01:53:33;;;;;;;190.60;88.20;;;;;;;-3.73;100.00;97765.41;4185076;83;21037;-89
2022/12/15 01:59:49;;;;;;;197.17;86.80;;;;;;;-3.78;100.00;97770.36;4218352;83;21087;-88
2022/12/15 02:05:50;;;;;;;191.57;86.80;;;;;;;-3.75;100.00;97780.97;4217829;82;21306;-89
2022/12/15 02:12:05;;;;;;;185.40;83.03;;;;;;;-3.72;100.00;97797.73;4215990;82;21063;-87
2022/12/15 02:18:24;;;;;;;185.23;83.97;;;;;;;-3.72;100.00;97794.52;4276886;82;21076;-87
2022/12/15 02:24:47;;;;;;;176.00;81.13;;;;;;;-3.65;100.00;97800.75;4271593;81;21312;-88
2022/12/15 02:37:35;;;;;;;168.90;73.60;;;;;;;-3.63;100.00;97811.36;4288860;82;21009;-88
2022/12/15 02:43:37;;;;;;;158.80;73.00;;;;;;;-3.61;100.00;97822.55;4284714;82;21076;-89
2022/12/15 02:49:59;;;;;;;163.20;74.67;;;;;;;-3.55;100.00;97819.16;4303067;81;21083;-89
2022/12/15 02:56:24;;;;;;;156.53;73.57;;;;;;;-3.52;100.00;97830.57;4267612;81;21044;-89
2022/12/15 03:02:30;;;;;;;156.70;71.20;;;;;;;-3.51;100.00;97834.84;4277266;82;21669;-89
2022/12/15 03:08:32;;;;;;;151.32;69.62;;;;;;;-3.45;100.00;97832.25;4265612;82;21048;-89
2022/12/15 03:14:33;;;;;;;148.83;67.90;;;;;;;-3.44;100.00;97829.80;4214029;83;21616;-89
2022/12/15 03:20:35;;;;;;;150.10;68.67;;;;;;;-3.38;100.00;97837.91;4203333;83;20994;-89
2022/12/15 03:26:36;;;;;;;149.90;69.27;;;;;;;-3.35;100.00;97848.79;4195979;83;21869;-90
2022/12/15 03:32:38;;;;;;;144.93;67.00;;;;;;;-3.33;100.00;97851.16;4292873;80;21071;-90
2022/12/15 03:38:39;;;;;;;149.97;69.97;;;;;;;-3.31;100.00;97848.42;4310324;80;22172;-89
2022/12/15 03:44:41;;;;;;;156.23;72.93;;;;;;;-3.31;100.00;97854.31;4194313;83;21005;-89
2022/12/15 03:50:43;;;;;;;160.73;74.60;;;;;;;-3.33;100.00;97870.69;4200446;83;21339;-90
2022/12/15 03:56:44;;;;;;;164.57;75.83;;;;;;;-3.33;100.00;97874.70;4202593;83;21505;-89
2022/12/15 04:02:47;;;;;;;174.33;78.97;;;;;;;-3.31;100.00;97878.40;4199848;83;21037;-90
2022/12/15 04:08:49;;;;;;;186.67;87.53;;;;;;;-3.31;100.00;97883.75;4300409;81;21064;-90
2022/12/15 04:14:52;;;;;;;189.13;85.93;;;;;;;-3.27;100.00;97895.39;4307070;80;21080;-90
2022/12/15 04:20:55;;;;;;;202.20;94.63;;;;;;;-3.24;100.00;97908.16;4302826;81;21544;-89
2022/12/15 05:36:49;;;;;;;129.37;64.03;;;;;;;-2.77;100.00;97988.20;4245479;81;21607;-90
2022/12/15 05:42:51;;;;;;;136.63;62.77;;;;;;;-2.72;100.00;98002.22;4273504;82;21017;-89
2022/12/15 05:48:52;;;;;;;131.77;61.53;;;;;;;-2.67;100.00;98022.17;4266945;81;21560;-89
2022/12/15 05:54:53;;;;;;;133.80;63.00;;;;;;;-2.63;100.00;98024.45;4272922;82;21036;-89
2022/12/15 06:01:04;;;;;;;146.27;67.83;;;;;;;-2.60;100.00;98032.44;4219173;83;21954;-89
2022/12/15 06:07:07;;;;;;;147.77;68.17;;;;;;;-2.56;100.00;98043.55;4220332;83;21081;-90
2022/12/15 06:13:08;;;;;;;154.63;67.27;;;;;;;-2.52;100.00;98046.41;4300949;81;21005;-90
2022/12/15 06:19:10;;;;;;;152.83;68.27;;;;;;;-2.48;100.00;98063.42;4286246;81;21017;-89
2022/12/15 06:25:11;;;;;;;149.73;66.30;;;;;;;-2.45;100.00;98074.85;4211884;83;21048;-89
2022/12/15 06:31:14;;;;;;;147.60;65.37;;;;;;;-2.42;100.00;98088.42;4208625;83;21547;-89
2022/12/15 06:37:18;;;;;;;151.23;66.47;;;;;;;-2.37;100.00;98105.70;4275190;82;21039;-89
2022/12/15 06:43:20;;;;;;;139.00;65.93;;;;;;;-2.35;100.00;98126.84;4272049;82;21581;-89
2022/12/15 06:49:21;;;;;;;130.03;59.27;;;;;;;-2.33;100.00;98121.93;4290480;81;21046;-89
2022/12/15 06:55:23;;;;;;;133.13;59.13;;;;;;;-2.29;100.00;98134.97;4274558;81;21033;-89
2022/12/15 07:01:25;;;;;;;132.10;57.67;;;;;;;-2.27;100.00;98156.33;4268113;82;21897;-89
2022/12/15 07:07:27;;;;;;;128.83;56.07;;;;;;;-2.21;100.00;98163.12;4296179;81;21044;-89
2022/12/15 07:13:28;;;;;;;114.87;53.07;;;;;;;-2.16;100.00;98160.87;4261466;82;21015;-89
2022/12/15 07:19:30;;;;;;;131.47;55.40;;;;;;;-2.15;100.00;98183.34;4220604;82;20985;-88
2022/12/15 07:25:31;;;;;;;118.97;53.80;;;;;;;-2.10;100.00;98182.41;4223713;82;21832;-90
2022/12/15 07:31:32;;;;;;;116.20;49.73;;;;;;;-2.08;100.00;98179.64;4195597;82;21057;-88
2022/12/15 07:37:34;;;;;;;116.13;48.97;;;;;;;-2.05;100.00;98199.12;4193454;83;21065;-89
2022/12/15 07:43:36;;;;;;;108.77;46.27;;;;;;;-2.01;100.00;98206.00;4196105;83;22048;-89
2022/12/15 07:49:37;;;;;;;105.23;47.70;;;;;;;-2.00;100.00;98225.01;4224075;81;21051;-89
2022/12/15 07:55:57;;;;;;;;;;;;;;;;;;;;;
2022/12/15 08:01:52;;;;;;;96.87;43.43;;;;;;;-1.96;100.00;98258.94;4126619;84;21074;-89
2022/12/15 08:07:57;;;;;;;112.32;47.90;;;;;;;-1.91;100.00;98252.67;4217924;82;21904;-89
2022/12/15 08:13:58;;;;;;;110.03;48.40;;;;;;;-1.89;100.00;98269.22;4233858;82;20993;-89
2022/12/15 08:20:04;;;;;;;110.97;45.33;;;;;;;-1.84;100.00;98279.81;4287296;81;21079;-89
2022/12/15 08:26:13;;;;;;;117.37;50.13;;;;;;;-1.85;100.00;98288.98;4277390;81;20994;-89
2022/12/15 08:32:16;;;;;;;111.50;51.27;;;;;;;-1.85;100.00;98290.31;4265388;81;21025;-88
2022/12/15 08:38:18;;;;;;;116.57;50.20;;;;;;;-1.84;100.00;98319.52;4223407;82;21038;-88
2022/12/15 08:44:21;;;;;;;96.90;46.00;;;;;;;-1.85;100.00;98334.58;4161392;83;21946;-89
2022/12/15 08:50:25;;;;;;;108.90;49.00;;;;;;;-1.85;100.00;98349.34;4278943;82;20945;-89
2022/12/15 08:56:31;;;;;;;76.93;34.73;;;;;;;-1.85;100.00;98351.45;4288233;81;21619;-90
2022/12/15 09:02:33;;;;;;;108.17;48.58;;;;;;;-1.85;100.00;98342.62;4216517;83;20982;-89
2022/12/15 09:08:34;;;;;;;102.40;45.80;;;;;;;-1.84;100.00;98358.42;4208862;83;21020;-89
2022/12/15 09:14:36;;;;;;;105.33;46.80;;;;;;;-1.89;100.00;98357.74;4208364;83;21070;-89
2022/12/15 09:20:40;;;;;;;105.05;45.35;;;;;;;-1.87;100.00;98351.53;4197559;83;20995;-89
2022/12/15 09:26:42;;;;;;;92.93;45.67;;;;;;;-1.83;100.00;98364.02;4201365;83;20973;-88
2022/12/15 09:32:43;;;;;;;89.63;44.43;;;;;;;-1.82;100.00;98366.92;4196639;83;21002;-89
2022/12/15 09:38:44;;;;;;;95.87;43.10;;;;;;;-1.80;100.00;98357.22;4292121;80;21561;-89
2022/12/15 09:44:46;;;;;;;90.47;44.17;;;;;;;-1.77;100.00;98360.66;4308229;80;21026;-89
2022/12/15 09:50:52;;;;;;;91.73;42.77;;;;;;;-1.74;100.00;98377.48;4287941;81;21044;-89
2022/12/15 09:56:56;;;;;;;99.22;47.17;;;;;;;-1.73;100.00;98367.77;4280732;81;21851;-89
2022/12/15 10:03:29;;;;;;;100.85;47.78;;;;;;;-1.71;100.00;98372.83;4197824;83;21044;-89
2022/12/15 10:09:31;;;;;;;88.62;40.03;;;;;;;-1.67;100.00;98369.22;4303489;81;21001;-89
2022/12/15 10:15:46;;;;;;;88.42;41.23;;;;;;;-1.65;100.00;98371.05;4286168;81;20981;-89
2022/12/15 10:21:48;;;;;;;93.03;41.10;;;;;;;-1.63;100.00;98354.63;4283973;81;21030;-89
2022/12/15 10:28:28;;;;;;;86.10;39.40;;;;;;;-1.60;100.00;98364.17;4301847;80;21441;-88
2022/12/15 10:34:44;;;;;;;106.50;43.80;;;;;;;-1.70;100.00;98377.08;4283634;81;21016;-89
2022/12/15 10:40:51;;;;;;;96.42;40.85;;;;;;;-1.61;100.00;98370.65;4290439;81;21464;-90
2022/12/15 10:46:58;;;;;;;101.15;44.03;;;;;;;-1.56;100.00;98369.72;4290060;81;21022;-89
2022/12/15 10:53:04;;;;;;;93.40;42.93;;;;;;;-1.42;100.00;98359.65;4288380;81;21441;-89
2022/12/15 10:59:35;;;;;;;93.77;42.57;;;;;;;-1.34;100.00;98362.91;4281523;80;21095;-90
2022/12/15 11:05:47;;;;;;;88.75;41.37;;;;;;;-1.30;100.00;98374.59;4266834;81;21109;-89
2022/12/15 11:18:31;;;;;;;99.97;44.63;;;;;;;-1.30;100.00;98426.95;4219654;82;21049;-89
2022/12/15 11:24:44;;;;;;;91.65;41.48;;;;;;;-1.32;100.00;98439.13;4221747;83;21005;-89
2022/12/15 11:30:54;;;;;;;98.40;42.45;;;;;;;-1.31;100.00;98448.20;4217237;83;21541;-89
2022/12/15 11:37:39;;;;;;;94.65;42.73;;;;;;;-1.28;100.00;98432.05;4214634;82;21025;-89
2022/12/15 11:44:16;;;;;;;100.43;44.13;;;;;;;-1.27;100.00;98433.61;4275100;82;21068;-89
2022/12/15 11:50:52;;;;;;;121.45;50.20;;;;;;;-1.24;100.00;98428.42;4273328;81;22049;-89
2022/12/15 11:57:04;;;;;;;101.07;47.20;;;;;;;-1.37;100.00;98427.17;4271485;81;21028;-89
2022/12/15 12:03:23;;;;;;;95.50;43.63;;;;;;;-1.34;100.00;98432.72;4270510;82;21014;-89
2022/12/15 12:10:07;;;;;;;100.18;45.23;;;;;;;-1.27;100.00;98437.10;4246870;81;21362;-89
2022/12/15 12:16:47;;;;;;;98.50;46.28;;;;;;;-1.30;100.00;98435.58;4252508;82;21933;-89
2022/12/15 12:23:03;;;;;;;104.35;45.83;;;;;;;-1.28;100.00;98452.19;4222022;82;21184;-89
2022/12/15 12:29:41;;;;;;;111.33;47.43;;;;;;;-1.28;100.00;98452.95;4200997;82;22115;-89
2022/12/15 12:35:55;;;;;;;97.80;46.37;;;;;;;-1.29;100.00;98451.92;4172401;82;21550;-89
2022/12/15 12:42:10;;;;;;;113.55;46.63;;;;;;;-1.37;100.00;98458.85;4230356;82;20962;-89
2022/12/15 12:48:23;;;;;;;101.45;44.85;;;;;;;-1.29;100.00;98450.58;4228141;82;21029;-89
2022/12/15 12:54:37;;;;;;;;;;;;;;;-1.41;100.00;98430.25;4203309;82;21452;-89
2022/12/15 13:00:42;;;;;;;103.67;45.28;;;;;;;-1.32;100.00;98453.89;4205822;82;20171;-90
2022/12/15 13:06:58;;;;;;;128.43;57.77;;;;;;;-1.36;100.00;98453.71;4198983;83;21809;-90
2022/12/15 13:13:30;;;;;;;130.32;59.18;;;;;;;-1.41;100.00;98458.44;4207613;82;20979;-90
2022/12/15 13:19:59;;;;;;;121.17;49.23;;;;;;;-1.35;100.00;98463.37;4238896;82;21050;-89
2022/12/15 13:26:06;;;;;;;124.60;50.78;;;;;;;-1.28;100.00;98472.32;4245518;82;20991;-90
2022/12/15 13:32:50;;;;;;;116.17;51.75;;;;;;;-1.40;100.00;98443.36;4235107;82;21562;-90
2022/12/15 13:38:56;;;;;;;109.03;49.35;;;;;;;-1.42;100.00;98456.84;4201481;81;21045;-90
2022/12/15 13:45:16;;;;;;;131.37;60.90;;;;;;;-1.46;100.00;98445.95;4231224;82;21090;-89
2022/12/15 14:06:29;;;;;;;134.87;57.93;;;;;;;-1.51;100.00;98471.58;4231841;82;21030;-88
2022/12/15 14:12:32;;;;;;;131.40;58.23;;;;;;;-1.50;100.00;98479.09;4225660;82;21023;-89
2022/12/15 14:18:37;;;;;;;126.82;58.13;;;;;;;-1.51;100.00;98489.57;4245092;81;21128;-90
2022/12/15 14:24:44;;;;;;;132.97;59.57;;;;;;;-1.51;100.00;98507.02;4240503;81;21078;-90
2022/12/15 14:30:51;;;;;;;143.57;62.17;;;;;;;-1.52;100.00;98520.20;4238800;81;21642;-90
2022/12/15 14:37:01;;;;;;;132.57;58.17;;;;;;;-1.54;100.00;98526.42;4228985;81;21133;-90
2022/12/15 14:43:12;;;;;;;137.32;61.63;;;;;;;-1.60;100.00;98549.94;4230850;81;21039;-90
2022/12/15 14:49:29;;;;;;;;;;;;;;;-1.63;100.00;98559.94;4224868;82;21058;-89
2022/12/15 14:55:39;;;;;;;144.00;63.00;;;;;;;-1.60;100.00;98566.03;4230676;81;20423;-89
2022/12/15 15:01:55;;;;;;;184.20;82.10;;;;;;;-1.59;100.00;98568.95;4229844;82;21069;-89
2022/12/15 15:07:56;;;;;;;190.28;83.95;;;;;;;-1.60;100.00;98565.47;4227103;81;21500;-89
2022/12/15 15:14:11;;;;;;;164.75;71.33;;;;;;;-1.58;100.00;98565.16;4217284;81;21046;-90
2022/12/15 15:20:24;;;;;;;159.48;73.05;;;;;;;-1.66;100.00;98557.88;4225015;82;21624;-90
2022/12/15 15:26:27;;;;;;;174.70;77.12;;;;;;;-1.69;100.00;98563.82;4241669;82;21540;-90
2022/12/15 15:32:28;;;;;;;141.80;62.08;;;;;;;-1.65;100.00;98552.73;4225555;82;21053;-90
2022/12/15 15:38:36;;;;;;;155.25;64.22;;;;;;;-1.65;100.00;98567.50;4221781;82;21056;-90
2022/12/15 15:44:39;;;;;;;181.97;73.97;;;;;;;-1.63;100.00;98573.36;4130577;83;21076;-90
2022/12/15 15:50:40;;;;;;;171.70;65.73;;;;;;;-1.64;100.00;98571.22;4127350;83;21100;-91
2022/12/15 15:56:43;;;;;;;181.10;77.00;;;;;;;-1.67;100.00;98589.81;4181498;83;21614;-89
2022/12/15 16:10:38;;;;;;;169.53;71.40;;;;;;;-1.72;100.00;98596.09;4180155;82;21027;-91
2022/12/15 16:16:56;;;;;;;171.40;73.28;;;;;;;-1.71;100.00;98591.53;4235209;82;21494;-90
2022/12/15 16:23:11;;;;;;;182.57;74.00;;;;;;;-1.73;100.00;98577.62;4184653;83;23053;-90
2022/12/15 16:29:20;;;;;;;190.00;74.70;;;;;;;-1.77;100.00;98566.69;4137499;83;21030;-91
2022/12/15 16:41:40;;;;;;;190.10;77.42;;;;;;;-1.75;100.00;98567.73;4210864;82;21084;-90
2022/12/15 16:54:53;;;;;;;190.27;77.13;;;;;;;-1.77;100.00;98569.95;4162612;83;21073;-90
2022/12/15 17:07:37;;;;;;;192.43;81.67;;;;;;;-1.77;100.00;98578.77;4197663;83;21049;-91
2022/12/15 17:13:40;;;;;;;259.37;108.63;;;;;;;-1.76;100.00;98576.34;4216971;83;21069;-91
2022/12/15 17:19:47;;;;;;;220.17;92.97;;;;;;;-1.75;100.00;98582.48;4266039;81;21048;-91
2022/12/15 17:25:53;;;;;;;186.13;77.97;;;;;;;-1.76;100.00;98591.11;4277918;81;21085;-90
2022/12/15 17:32:01;;;;;;;169.53;72.60;;;;;;;-1.77;100.00;98581.45;4259275;82;21101;-91
2022/12/15 17:38:00;;;;;;;166.32;71.15;;;;;;;-1.90;100.00;98546.10;4302715;80;21062;-91
2022/12/15 17:44:07;;;;;;;150.60;66.80;;;;;;;-1.90;100.00;98546.10;4298417;81;21910;-91
2022/12/15 17:50:26;;;;;;;156.00;64.77;;;;;;;-1.83;100.00;98537.60;4258385;81;21050;-91
2022/12/15 17:56:27;;;;;;;149.60;63.03;;;;;;;-1.85;100.00;98534.45;4323030;80;21018;-91
2022/12/15 18:02:33;;;;;;;;;;;;;;;-1.84;100.00;98540.86;4325504;81;21090;-91
2022/12/15 18:08:54;;;;;;;135.67;58.87;;;;;;;-1.85;100.00;98529.86;4289143;81;20572;-92
2022/12/15 18:14:45;;;;;;;146.60;58.07;;;;;;;-1.88;100.00;98531.81;4234987;81;21084;-91
2022/12/15 18:20:52;;;;;;;148.67;57.23;;;;;;;-1.89;100.00;98549.02;4278993;82;21016;-90
2022/12/15 18:26:54;;;;;;;140.50;57.80;;;;;;;-1.89;100.00;98547.67;4280102;82;21019;-91
2022/12/15 18:32:58;;;;;;;144.53;56.03;;;;;;;-1.87;100.00;98577.69;4401793;80;21030;-91
2022/12/15 18:39:22;;;;;;;132.50;57.20;;;;;;;-1.86;100.00;98581.94;4362193;80;21026;-91
2022/12/15 18:45:28;;;;;;;148.87;61.63;;;;;;;-1.87;100.00;98579.56;4396170;80;21356;-90
2022/12/15 18:51:30;;;;;;;147.65;60.67;;;;;;;-1.84;100.00;98601.22;4397017;80;21054;-91
2022/12/15 18:57:35;;;;;;;140.43;61.53;;;;;;;-1.84;100.00;98600.42;4368427;80;22461;-91
2022/12/15 19:03:39;;;;;;;149.05;59.75;;;;;;;-1.84;100.00;98605.78;4385586;80;21058;-92
2022/12/15 19:09:46;;;;;;;167.13;64.97;;;;;;;-1.86;100.00;98582.48;4393977;80;21054;-91
2022/12/15 19:15:50;;;;;;;158.15;69.27;;;;;;;-1.91;100.00;98557.91;4377344;80;21059;-90
2022/12/15 19:27:58;;;;;;;182.50;73.17;;;;;;;-1.94;100.00;98542.42;4302740;81;21032;-91
2022/12/15 19:34:01;;;;;;;194.90;75.17;;;;;;;-1.95;100.00;98534.14;4307006;81;20979;-91
2022/12/15 19:40:07;;;;;;;224.17;81.17;;;;;;;-1.95;100.00;98541.39;4309049;80;21085;-90
2022/12/15 19:46:17;;;;;;;226.70;86.20;;;;;;;-1.96;100.00;98538.47;4253405;80;21134;-91
2022/12/15 19:52:20;;;;;;;220.63;84.27;;;;;;;-2.01;100.00;98546.09;4317001;81;21099;-92
2022/12/15 19:58:35;;;;;;;158.93;59.83;;;;;;;-2.20;100.00;98529.91;4306285;81;21339;-91
2022/12/15 20:04:37;;;;;;;197.40;79.63;;;;;;;-2.20;100.00;98529.91;4316636;80;21048;-91
2022/12/15 20:10:38;;;;;;;180.70;78.30;;;;;;;-2.12;100.00;98545.28;4314042;80;21031;-91
2022/12/15 20:16:46;;;;;;;188.90;80.83;;;;;;;-2.14;100.00;98532.72;4321571;80;21019;-92
2022/12/15 20:22:54;;;;;;;192.80;80.70;;;;;;;-2.16;100.00;98536.27;4234472;82;21707;-90
2022/12/15 20:29:21;;;;;;;165.37;73.27;;;;;;;-2.17;100.00;98536.00;4279584;81;21015;-91
2022/12/15 20:35:26;;;;;;;165.37;72.87;;;;;;;-2.19;100.00;98525.58;4291987;81;21282;-91
2022/12/15 20:41:29;;;;;;;145.83;64.20;;;;;;;-2.19;100.00;98514.05;4285687;81;21063;-90
2022/12/15 20:47:31;;;;;;;144.17;62.23;;;;;;;-2.25;100.00;98504.55;4285933;81;21127;-90
2022/12/15 20:53:32;;;;;;;131.93;59.67;;;;;;;-2.30;100.00;98495.30;4327427;80;21036;-90
2022/12/15 20:59:50;;;;;;;130.43;58.87;;;;;;;-2.33;100.00;98505.27;4241973;82;21532;-91
2022/12/15 21:06:00;;;;;;;136.87;62.73;;;;;;;-2.35;100.00;98495.41;4229484;82;21065;-91
2022/12/15 21:12:01;;;;;;;;;;;;;;;-2.41;100.00;98504.10;4232264;81;21079;-92
2022/12/15 21:18:18;;;;;;;134.63;60.57;;;;;;;-2.41;100.00;98501.98;4246388;82;20910;-90
2022/12/15 21:24:24;;;;;;;134.27;59.67;;;;;;;-2.43;100.00;98494.79;4243585;82;21045;-91
2022/12/15 21:30:27;;;;;;;131.80;60.57;;;;;;;-2.44;100.00;98480.59;4210916;83;21024;-90
2022/12/15 21:36:38;;;;;;;135.00;60.83;;;;;;;-2.47;100.00;98457.61;4253427;82;21050;-92
2022/12/15 21:42:54;;;;;;;133.20;58.40;;;;;;;-2.51;100.00;98454.77;4276133;81;21034;-91
2022/12/15 21:49:19;;;;;;;124.13;56.13;;;;;;;-2.52;100.00;98453.16;4287853;81;21063;-91
2022/12/15 21:55:21;;;;;;;123.67;52.67;;;;;;;-2.53;100.00;98436.84;4259127;82;21047;-91
2022/12/15 22:01:36;;;;;;;113.97;51.73;;;;;;;-2.54;100.00;98433.13;4265365;81;21031;-91
2022/12/15 22:07:39;;;;;;;117.23;50.03;;;;;;;-2.57;100.00;98428.38;4274376;82;21055;-90
2022/12/15 22:13:42;;;;;;;110.87;51.93;;;;;;;-2.59;100.00;98436.73;4283077;81;21064;-92
2022/12/15 22:19:44;;;;;;;125.90;54.63;;;;;;;-2.60;100.00;98433.78;4308779;80;21071;-90
2022/12/15 22:25:54;;;;;;;110.37;51.03;;;;;;;-2.62;100.00;98437.33;4319896;80;21537;-91
2022/12/15 22:31:57;;;;;;;114.90;53.00;;;;;;;-2.63;100.00;98423.67;4303645;81;21103;-91
2022/12/15 22:38:01;;;;;;;;;;;;;;;-2.61;100.00;98442.12;4304032;81;21388;-90
2022/12/15 22:44:28;;;;;;;116.33;52.87;;;;;;;-2.63;100.00;98437.07;4293887;80;20569;-91
2022/12/15 22:50:32;;;;;;;121.97;52.50;;;;;;;-2.64;100.00;98434.16;4291549;81;21075;-89
2022/12/15 22:56:41;;;;;;;111.03;49.00;;;;;;;-2.65;100.00;98415.70;4307406;81;21623;-91
2022/12/15 23:02:47;;;;;;;107.63;47.20;;;;;;;-2.65;100.00;98417.05;4319108;80;21010;-91
2022/12/15 23:09:09;;;;;;;109.42;47.70;;;;;;;-2.68;100.00;98400.23;4303900;81;21381;-89
2022/12/15 23:21:22;;;;;;;105.73;44.50;;;;;;;-2.74;100.00;98382.12;4254648;81;21542;-89
2022/12/15 23:27:25;;;;;;;97.40;45.98;;;;;;;-2.76;100.00;98368.80;4237908;82;21096;-89
2022/12/15 23:33:28;;;;;;;99.03;44.80;;;;;;;-2.80;100.00;98365.16;4227869;82;21078;-90
2022/12/15 23:39:31;;;;;;;106.03;44.80;;;;;;;-2.84;100.00;98370.33;4146055;84;21668;-91
2022/12/15 23:45:32;;;;;;;100.67;45.00;;;;;;;-2.84;100.00;98369.52;4161950;83;21052;-90
2022/12/15 23:51:37;;;;;;;109.47;46.30;;;;;;;-2.85;100.00;98372.74;4180199;83;21080;-91
2022/12/15 23:57:43;;;;;;;104.03;44.73;;;;;;;-2.84;100.00;98362.83;4223460;81;21065;-89
